Time;durP1;ratioP1;P1;durP2;ratioP2;P2;SDS_P1;SDS_P2;PMS_P1;PMS_P2;Temp;Humidity;BMP_temperature;BMP_pressure;BME280_temperature;BME280_humidity;BME280_pressure;Samples;Min_cycle;Max_cycle;Signal;HPM_P1;HPM_P2
2023/05/29 00:00:42;;;;;;;13.95;8.45;;;;;;;9.36;80.15;96060.53;2097940;28;20071;-58
2023/05/29 00:01:43;;;;;;;15.00;8.35;;;;;;;9.35;80.10;96061.41;2097130;28;20060;-58
2023/05/29 00:02:44;;;;;;;13.57;8.30;;;;;;;9.28;80.34;96053.91;2097024;28;20067;-58
2023/05/29 00:03:45;;;;;;;15.35;8.38;;;;;;;9.34;80.42;96065.75;2097298;28;20392;-58
2023/05/29 00:04:46;;;;;;;16.33;8.88;;;;;;;9.32;80.95;96067.56;2097386;28;20091;-58
2023/05/29 00:05:49;;;;;;;14.95;8.75;;;;;;;9.31;81.22;96063.28;2097510;28;20138;-58
2023/05/29 00:06:50;;;;;;;17.08;8.40;;;;;;;9.30;81.53;96069.38;2097740;28;20044;-58
2023/05/29 00:07:51;;;;;;;16.25;8.90;;;;;;;9.29;81.73;96070.28;2097053;28;20404;-58
2023/05/29 00:08:52;;;;;;;13.55;7.75;;;;;;;9.16;82.06;96049.19;2097627;28;20049;-58
2023/05/29 00:09:53;;;;;;;15.07;8.32;;;;;;;9.25;82.53;96072.16;2098116;28;20036;-58
2023/05/29 00:10:55;;;;;;;15.18;7.82;;;;;;;9.18;82.44;96059.50;2097759;28;20059;-57
2023/05/29 00:11:56;;;;;;;16.05;8.63;;;;;;;9.22;82.66;96063.66;2097072;28;20399;-58
2023/05/29 00:12:57;;;;;;;16.02;8.63;;;;;;;9.22;82.70;96071.41;2097063;28;20048;-58
2023/05/29 00:13:58;;;;;;;14.32;8.50;;;;;;;9.18;83.29;96065.53;2097114;28;20052;-58
2023/05/29 00:14:59;;;;;;;15.85;8.70;;;;;;;9.17;83.04;96065.63;2096821;28;20052;-57
2023/05/29 00:16:00;;;;;;;18.40;9.55;;;;;;;9.15;83.33;96065.66;2097288;28;20067;-57
2023/05/29 00:17:02;;;;;;;18.98;9.35;;;;;;;9.07;83.31;96053.94;2097706;28;20039;-58
2023/05/29 00:18:04;;;;;;;14.85;8.98;;;;;;;9.13;83.49;96069.22;2088468;28;20528;-57
2023/05/29 00:19:05;;;;;;;14.75;8.80;;;;;;;9.11;83.69;96069.25;2088164;28;20053;-58
2023/05/29 00:20:09;;;;;;;17.05;8.98;;;;;;;9.02;84.13;96059.28;2097787;28;20041;-58
2023/05/29 00:21:10;;;;;;;16.10;9.10;;;;;;;9.08;84.18;96065.97;2097011;28;20044;-57
2023/05/29 00:22:12;;;;;;;16.63;8.60;;;;;;;9.09;83.97;96062.47;2097772;28;20392;-58
2023/05/29 00:23:13;;;;;;;15.93;8.25;;;;;;;9.04;83.92;96060.91;2097097;28;20055;-58
2023/05/29 00:24:15;;;;;;;15.57;8.63;;;;;;;9.03;83.98;96059.25;2097263;28;20045;-57
2023/05/29 00:25:16;;;;;;;15.00;8.93;;;;;;;9.02;84.26;96067.91;2097289;28;20040;-58
2023/05/29 00:26:17;;;;;;;16.80;9.40;;;;;;;9.01;84.40;96061.03;2099118;28;20051;-58
2023/05/29 00:27:22;;;;;;;15.75;9.43;;;;;;;8.99;84.61;96056.81;2089171;28;20460;-58
2023/05/29 00:28:23;;;;;;;20.05;9.60;;;;;;;9.06;84.63;96068.59;2089889;28;20057;-58
2023/05/29 00:29:24;;;;;;;17.92;9.60;;;;;;;9.05;84.37;96069.53;2090111;28;20045;-58
2023/05/29 00:30:25;;;;;;;18.73;9.77;;;;;;;9.04;84.28;96066.09;2089592;28;20053;-58
2023/05/29 00:31:27;;;;;;;16.20;9.10;;;;;;;9.02;84.29;96061.88;2089417;28;20076;-58
2023/05/29 00:32:29;;;;;;;18.27;9.52;;;;;;;9.03;84.23;96068.72;2089327;28;20063;-58
2023/05/29 00:33:30;;;;;;;19.00;9.68;;;;;;;9.02;84.15;96065.31;2098417;28;20052;-57
2023/05/29 00:34:31;;;;;;;18.98;9.30;;;;;;;8.94;83.79;96054.41;2089642;28;20075;-58
2023/05/29 00:35:32;;;;;;;18.77;9.40;;;;;;;9.00;84.45;96067.09;2090231;28;20504;-58
2023/05/29 00:36:34;;;;;;;20.50;9.93;;;;;;;9.00;83.78;96063.69;2098370;28;20507;-58
2023/05/29 00:37:35;;;;;;;17.63;9.88;;;;;;;8.98;84.24;96070.66;2081788;28;20065;-58
2023/05/29 00:38:36;;;;;;;18.33;9.55;;;;;;;8.96;84.36;96069.91;2081907;28;20137;-58
2023/05/29 00:39:37;;;;;;;20.70;10.32;;;;;;;8.95;84.48;96065.59;2098649;28;20053;-58
2023/05/29 00:40:40;;;;;;;18.23;8.75;;;;;;;8.95;84.55;96060.44;2098422;28;20403;-58
2023/05/29 00:41:41;;;;;;;19.20;10.10;;;;;;;8.98;84.67;96063.75;2089553;28;20075;-57
2023/05/29 00:42:42;;;;;;;15.18;9.50;;;;;;;8.99;84.61;96064.59;2090176;28;20060;-57
2023/05/29 00:43:43;;;;;;;16.90;9.70;;;;;;;8.89;84.45;96045.97;2090191;28;20056;-58
2023/05/29 00:44:44;;;;;;;19.23;9.68;;;;;;;8.98;84.82;96062.88;2080995;28;20049;-58
2023/05/29 00:45:45;;;;;;;17.65;9.48;;;;;;;8.94;84.81;96059.59;2081867;28;20045;-58
2023/05/29 00:46:47;;;;;;;18.88;9.57;;;;;;;8.96;85.10;96059.53;2081968;28;20065;-58
2023/05/29 00:47:48;;;;;;;19.00;9.38;;;;;;;8.97;85.43;96069.00;2081879;28;20056;-57
2023/05/29 00:48:49;;;;;;;18.48;10.23;;;;;;;8.95;85.57;96066.44;2081919;28;20111;-57
2023/05/29 00:49:51;;;;;;;17.42;9.52;;;;;;;8.94;86.00;96064.78;2081608;28;20497;-57
2023/05/29 00:50:52;;;;;;;19.83;9.80;;;;;;;8.94;85.80;96062.19;2073576;28;20454;-57
2023/05/29 00:51:54;;;;;;;15.60;9.38;;;;;;;8.91;85.99;96056.28;2081284;28;20045;-57
2023/05/29 00:52:55;;;;;;;16.75;9.60;;;;;;;8.91;85.52;96067.47;2081350;28;20057;-57
2023/05/29 00:53:56;;;;;;;19.63;9.35;;;;;;;8.88;86.17;96057.25;2082049;28;20401;-58
2023/05/29 00:55:00;;;;;;;17.42;9.73;;;;;;;8.90;86.07;96063.22;2089505;28;20060;-57
2023/05/29 00:56:02;;;;;;;17.20;9.60;;;;;;;8.87;86.25;96058.13;2090260;28;20097;-57
2023/05/29 00:57:04;;;;;;;17.80;9.27;;;;;;;8.86;85.86;96061.66;2089506;28;20049;-58
2023/05/29 00:58:05;;;;;;;18.27;9.23;;;;;;;8.86;85.73;96060.81;2073057;28;20053;-58
2023/05/29 00:59:06;;;;;;;19.25;10.07;;;;;;;8.84;85.88;96064.28;2082248;28;20042;-57
2023/05/29 01:00:08;;;;;;;16.45;9.27;;;;;;;8.84;85.66;96058.25;2098247;28;20651;-58
2023/05/29 01:01:10;;;;;;;18.90;10.07;;;;;;;8.84;85.58;96058.25;2098252;28;20093;-57
2023/05/29 01:02:11;;;;;;;16.73;9.32;;;;;;;8.84;85.17;96060.84;2089867;28;20044;-58
2023/05/29 01:03:14;;;;;;;15.68;9.35;;;;;;;8.77;84.99;96049.91;2089609;28;20057;-58
2023/05/29 01:04:16;;;;;;;18.10;9.15;;;;;;;8.79;84.75;96047.25;2073070;28;20105;-57
2023/05/29 01:05:19;;;;;;;19.55;9.85;;;;;;;8.88;84.52;96065.03;2073603;28;20404;-57
2023/05/29 01:06:20;;;;;;;18.55;10.13;;;;;;;8.85;84.17;96059.97;2098262;28;20041;-57
2023/05/29 01:07:21;;;;;;;18.38;9.30;;;;;;;8.85;84.39;96062.56;2098263;28;20388;-58
2023/05/29 01:08:22;;;;;;;18.02;9.55;;;;;;;8.82;83.97;96066.09;2098467;28;20502;-58
2023/05/29 01:09:24;;;;;;;17.27;9.20;;;;;;;8.80;84.11;96067.91;2098237;28;20045;-57
2023/05/29 01:10:26;;;;;;;16.02;9.40;;;;;;;8.72;84.11;96051.00;2098110;28;20442;-57
2023/05/29 01:12:08;;;;;;;19.85;9.85;;;;;;;8.68;84.42;96052.84;2088845;28;20497;-57
2023/05/29 01:13:12;;;;;;;17.63;9.27;;;;;;;8.75;84.10;96075.00;2095676;28;20558;-57
2023/05/29 01:14:25;;;;;;;17.73;9.57;;;;;;;8.72;83.84;96071.72;2089300;28;20053;-57
2023/05/29 01:15:37;;;;;;;17.10;9.02;;;;;;;8.71;83.87;96062.22;2091967;28;20053;-57
2023/05/29 01:16:44;;;;;;;19.00;9.52;;;;;;;8.70;83.97;96065.72;2089821;28;20056;-57
2023/05/29 01:18:06;;;;;;;16.67;8.73;;;;;;;8.68;84.12;96068.38;2077186;28;20115;-58
2023/05/29 01:19:24;;;;;;;20.80;9.45;;;;;;;8.66;83.94;96061.56;2078860;28;20049;-57
2023/05/29 01:20:41;;;;;;;19.92;9.70;;;;;;;8.65;84.41;96067.66;2084220;28;20489;-57
2023/05/29 01:21:58;;;;;;;21.02;8.82;;;;;;;8.63;84.41;96067.69;2083829;28;20057;-57
2023/05/29 01:23:33;;;;;;;20.05;10.00;;;;;;;8.64;84.34;96076.34;2077710;28;20053;-57
2023/05/29 01:24:43;;;;;;;16.67;8.70;;;;;;;8.63;84.67;96072.03;2083552;28;20044;-58
2023/05/29 01:25:58;;;;;;;17.20;9.18;;;;;;;8.63;84.73;96079.81;2077400;28;20425;-57
2023/05/29 01:27:05;;;;;;;16.65;9.60;;;;;;;8.51;85.24;96058.66;2076822;28;20046;-57
2023/05/29 01:28:06;;;;;;;15.75;9.27;;;;;;;8.60;85.09;96070.41;2065732;28;20049;-58
2023/05/29 01:29:08;;;;;;;15.70;9.50;;;;;;;8.53;85.39;96048.28;2072763;28;20058;-57
2023/05/29 01:30:09;;;;;;;18.88;10.05;;;;;;;8.64;85.35;96071.16;2089732;28;20056;-57
2023/05/29 01:31:11;;;;;;;18.75;8.45;;;;;;;8.63;85.63;96079.81;2081748;28;20049;-57
2023/05/29 01:32:12;;;;;;;16.77;9.65;;;;;;;8.60;85.82;96071.25;2081612;28;20052;-57
2023/05/29 01:33:13;;;;;;;20.95;10.32;;;;;;;8.56;85.91;96064.50;2081297;28;20531;-58
2023/05/29 01:34:14;;;;;;;18.27;9.88;;;;;;;8.63;85.85;96069.44;2080673;28;20045;-57
2023/05/29 01:35:18;;;;;;;17.38;9.38;;;;;;;8.62;86.09;96071.19;2090091;28;20052;-57
2023/05/29 01:36:20;;;;;;;17.92;9.80;;;;;;;8.61;86.35;96070.38;2088525;28;20369;-58
2023/05/29 01:37:21;;;;;;;20.50;10.13;;;;;;;8.59;86.65;96060.97;2088277;28;20053;-57
2023/05/29 01:38:22;;;;;;;17.88;9.70;;;;;;;8.57;86.21;96063.59;2098826;28;20052;-58
2023/05/29 01:39:24;;;;;;;18.40;10.40;;;;;;;8.57;86.53;96065.34;2097966;28;20053;-58
2023/05/29 01:40:26;;;;;;;18.42;9.55;;;;;;;8.57;86.77;96062.78;2089090;28;20053;-57
2023/05/29 01:41:27;;;;;;;18.88;9.68;;;;;;;8.57;87.12;96062.78;2081269;28;20057;-57
2023/05/29 01:42:28;;;;;;;18.38;9.55;;;;;;;8.54;86.50;96061.13;2065120;28;20061;-57
2023/05/29 01:43:30;;;;;;;21.83;9.63;;;;;;;8.53;86.58;96062.06;2081090;28;20064;-57
2023/05/29 01:44:31;;;;;;;18.17;9.55;;;;;;;8.51;86.47;96061.25;2089645;28;20048;-58
2023/05/29 01:45:32;;;;;;;18.98;9.75;;;;;;;8.49;86.52;96057.88;2072978;28;20056;-57
2023/05/29 01:46:33;;;;;;;18.13;9.55;;;;;;;8.48;86.53;96063.97;2080676;28;20112;-57
2023/05/29 01:47:35;;;;;;;19.30;10.13;;;;;;;8.48;86.67;96073.47;2097969;28;20059;-57
2023/05/29 01:48:36;;;;;;;18.58;10.32;;;;;;;8.47;86.45;96064.84;2088787;28;20076;-57
2023/05/29 01:49:37;;;;;;;16.02;8.82;;;;;;;8.46;86.96;96063.19;2089560;28;20114;-58
2023/05/29 01:50:39;;;;;;;18.27;10.00;;;;;;;8.47;86.84;96070.03;2089123;28;20068;-57
2023/05/29 01:51:40;;;;;;;17.77;9.23;;;;;;;8.47;87.12;96064.84;2080754;28;20460;-57
2023/05/29 01:52:41;;;;;;;19.52;10.00;;;;;;;8.46;87.29;96060.59;2089396;28;20101;-57
2023/05/29 01:53:43;;;;;;;18.42;10.25;;;;;;;8.48;87.12;96063.13;2097729;28;20052;-58
2023/05/29 01:54:44;;;;;;;17.70;10.57;;;;;;;8.46;87.70;96062.34;2097813;28;20059;-57
2023/05/29 01:55:46;;;;;;;18.27;10.40;;;;;;;8.49;88.30;96068.22;2088778;28;20409;-57
2023/05/29 01:56:47;;;;;;;17.10;10.10;;;;;;;8.50;88.82;96067.34;2073220;28;20072;-57
2023/05/29 01:57:49;;;;;;;20.20;10.48;;;;;;;8.49;88.78;96070.81;2072512;28;20429;-57
2023/05/29 01:58:50;;;;;;;19.88;10.07;;;;;;;8.31;89.09;96040.41;2073408;28;20053;-57
2023/05/29 01:59:51;;;;;;;21.20;10.73;;;;;;;8.46;89.02;96070.09;2072737;28;20494;-57
2023/05/29 02:00:53;;;;;;;18.20;10.25;;;;;;;8.41;89.12;96062.50;2089521;28;20041;-57
2023/05/29 02:01:54;;;;;;;19.20;11.05;;;;;;;8.39;88.52;96064.28;2097444;28;20048;-57
2023/05/29 02:02:56;;;;;;;17.10;9.48;;;;;;;8.37;88.95;96068.69;2089194;28;20048;-58
2023/05/29 02:03:57;;;;;;;19.25;10.70;;;;;;;8.35;89.08;96066.13;2089044;28;20049;-58
2023/05/29 02:04:58;;;;;;;16.80;9.35;;;;;;;8.35;89.21;96066.13;2097697;28;20400;-57
2023/05/29 02:05:59;;;;;;;16.30;9.85;;;;;;;8.33;89.16;96067.94;2097505;28;20093;-58
2023/05/29 02:07:01;;;;;;;20.13;9.80;;;;;;;8.34;89.25;96064.47;2088802;28;20508;-57
2023/05/29 02:08:02;;;;;;;17.27;9.55;;;;;;;8.32;89.22;96070.59;2081382;28;20042;-57
2023/05/29 02:09:03;;;;;;;17.30;10.00;;;;;;;8.29;89.03;96068.13;2089248;28;20052;-57
2023/05/29 02:10:05;;;;;;;14.05;9.23;;;;;;;8.27;88.99;96072.50;2088438;28;20076;-57
2023/05/29 02:11:06;;;;;;;16.50;10.00;;;;;;;8.26;89.20;96063.03;2081397;28;20144;-58
2023/05/29 02:12:07;;;;;;;18.55;9.93;;;;;;;8.25;89.24;96067.38;2089076;28;20053;-57
2023/05/29 02:13:08;;;;;;;18.45;10.43;;;;;;;8.23;89.32;96070.91;2088751;28;20159;-58
2023/05/29 02:14:10;;;;;;;19.77;11.18;;;;;;;8.22;89.29;96066.66;2089178;28;20171;-58
2023/05/29 02:15:11;;;;;;;17.60;9.68;;;;;;;8.14;89.51;96065.19;2088596;28;20052;-58
2023/05/29 02:16:12;;;;;;;16.73;9.88;;;;;;;8.18;89.44;96060.75;2088741;28;20060;-57
2023/05/29 02:17:14;;;;;;;23.88;10.68;;;;;;;8.19;89.71;96072.78;2088698;28;20075;-57
2023/05/29 02:18:17;;;;;;;18.90;9.77;;;;;;;8.12;89.77;96048.03;2088749;28;20060;-57
2023/05/29 02:19:19;;;;;;;19.83;9.68;;;;;;;8.17;89.93;96070.22;2080812;28;20056;-57
2023/05/29 02:20:21;;;;;;;16.15;9.75;;;;;;;8.16;89.90;96065.97;2080536;28;20421;-57
2023/05/29 02:21:22;;;;;;;18.88;10.43;;;;;;;8.16;90.10;96065.97;2081000;28;20060;-57
2023/05/29 02:22:23;;;;;;;15.73;9.45;;;;;;;8.14;89.94;96066.94;2089058;28;20072;-57
2023/05/29 02:23:24;;;;;;;20.77;10.35;;;;;;;8.13;89.82;96063.50;2089411;28;20057;-57
2023/05/29 02:24:26;;;;;;;20.10;10.18;;;;;;;8.12;90.17;96061.78;2080682;28;20449;-57
2023/05/29 02:25:27;;;;;;;17.73;10.05;;;;;;;8.12;89.86;96060.97;2088948;28;20057;-56
2023/05/29 02:26:28;;;;;;;17.63;9.98;;;;;;;8.10;89.88;96066.19;2097576;28;20059;-55
2023/05/29 02:27:29;;;;;;;14.88;9.25;;;;;;;8.10;90.13;96058.44;2089232;28;20533;-56
2023/05/29 02:28:30;;;;;;;15.95;9.20;;;;;;;8.09;90.07;96061.06;2088917;28;20061;-56
2023/05/29 02:29:31;;;;;;;14.55;9.23;;;;;;;8.08;89.94;96067.16;2088706;28;20056;-55
2023/05/29 02:30:32;;;;;;;16.20;8.35;;;;;;;8.09;90.03;96064.50;2080983;28;20054;-56
2023/05/29 02:31:33;;;;;;;16.90;9.65;;;;;;;8.09;89.71;96068.84;2088772;28;20057;-56
2023/05/29 02:32:35;;;;;;;15.90;9.73;;;;;;;8.05;89.36;96070.69;2097645;28;20162;-56
2023/05/29 02:33:36;;;;;;;17.25;9.82;;;;;;;8.02;89.31;96057.88;2097429;28;20056;-56
2023/05/29 02:34:37;;;;;;;17.92;9.18;;;;;;;8.04;89.35;96071.56;2097338;28;20468;-56
2023/05/29 02:35:39;;;;;;;15.07;8.63;;;;;;;8.04;89.03;96074.16;2089289;28;20048;-56
2023/05/29 02:36:40;;;;;;;15.15;8.48;;;;;;;8.05;88.88;96069.84;2088764;28;20049;-56
2023/05/29 02:37:41;;;;;;;18.02;9.20;;;;;;;7.94;88.73;96054.72;2097508;28;20459;-55
2023/05/29 02:38:42;;;;;;;17.13;9.40;;;;;;;8.06;88.91;96071.53;2097422;28;20056;-56
2023/05/29 02:39:44;;;;;;;16.95;9.10;;;;;;;8.06;88.90;96069.78;2098049;28;20041;-56
2023/05/29 02:40:45;;;;;;;18.80;9.00;;;;;;;8.05;88.74;96070.69;2097558;28;20392;-56
2023/05/29 02:41:46;;;;;;;16.30;9.13;;;;;;;7.97;88.35;96054.63;2098057;28;20037;-56
2023/05/29 02:42:48;;;;;;;14.15;9.18;;;;;;;8.06;88.31;96074.97;2088676;28;20053;-56
2023/05/29 02:43:49;;;;;;;16.48;8.60;;;;;;;8.05;88.09;96072.44;2088884;28;20037;-56
2023/05/29 02:44:50;;;;;;;15.63;7.68;;;;;;;8.05;87.91;96073.28;2097632;28;20400;-55
2023/05/29 02:45:52;;;;;;;15.48;9.13;;;;;;;8.06;87.91;96074.97;2089151;28;20372;-56
2023/05/29 02:46:53;;;;;;;16.40;9.23;;;;;;;8.04;87.54;96070.75;2080962;28;20041;-56
2023/05/29 02:47:55;;;;;;;14.18;8.63;;;;;;;8.04;87.56;96071.56;2088602;28;20093;-56
2023/05/29 02:48:56;;;;;;;14.52;7.90;;;;;;;8.05;87.41;96068.09;2088984;28;20472;-56
2023/05/29 02:49:57;;;;;;;15.30;8.80;;;;;;;8.06;87.59;96061.19;2080226;28;20060;-56
2023/05/29 02:50:59;;;;;;;16.58;9.25;;;;;;;8.08;87.17;96062.81;2080804;28;20397;-56
2023/05/29 02:52:00;;;;;;;21.30;9.63;;;;;;;8.06;87.04;96069.78;2088807;28;20055;-55
2023/05/29 02:53:01;;;;;;;16.15;9.07;;;;;;;8.07;87.11;96065.44;2080474;28;20045;-56
2023/05/29 02:54:03;;;;;;;16.35;8.82;;;;;;;8.10;86.81;96065.34;2080818;28;20441;-58
2023/05/29 02:55:05;;;;;;;14.57;8.40;;;;;;;8.07;86.86;96065.44;2080803;28;20049;-57
2023/05/29 02:56:08;;;;;;;14.02;8.07;;;;;;;8.11;86.88;96067.03;2081040;28;20052;-57
2023/05/29 02:57:09;;;;;;;16.85;9.25;;;;;;;8.10;86.82;96076.56;2080905;28;20076;-57
2023/05/29 02:58:11;;;;;;;17.63;8.73;;;;;;;8.10;86.79;96071.38;2080536;28;20068;-57
2023/05/29 02:59:12;;;;;;;15.52;9.30;;;;;;;8.09;86.60;96063.66;2080761;28;20058;-58
2023/05/29 03:00:13;;;;;;;13.63;8.05;;;;;;;8.11;86.47;96067.88;2088411;28;20060;-57
2023/05/29 03:01:14;;;;;;;20.08;9.07;;;;;;;8.13;86.84;96071.25;2098067;28;20051;-57
2023/05/29 03:02:16;;;;;;;14.73;9.00;;;;;;;8.07;86.87;96045.63;2088691;28;20056;-57
2023/05/29 03:03:17;;;;;;;21.13;10.02;;;;;;;8.13;86.79;96066.09;2080237;28;20061;-57
2023/05/29 03:04:18;;;;;;;15.40;9.10;;;;;;;8.13;86.84;96068.69;2080819;28;20057;-57
2023/05/29 03:05:19;;;;;;;14.82;8.75;;;;;;;8.23;86.83;96063.16;2089226;28;20045;-57
2023/05/29 03:06:20;;;;;;;14.82;9.20;;;;;;;8.21;86.83;96065.81;2088447;28;20095;-57
2023/05/29 03:07:21;;;;;;;19.35;9.60;;;;;;;8.23;87.01;96063.16;2080841;28;20076;-57
2023/05/29 03:08:23;;;;;;;13.27;8.20;;;;;;;8.26;87.10;96073.38;2088314;28;20053;-57
2023/05/29 03:09:24;;;;;;;12.93;8.25;;;;;;;8.25;87.29;96066.53;2089164;28;20049;-58
2023/05/29 03:10:26;;;;;;;15.65;8.55;;;;;;;8.25;87.89;96067.38;2088655;28;20065;-57
2023/05/29 03:11:28;;;;;;;19.65;8.82;;;;;;;8.28;88.05;96069.00;2097946;28;20370;-57
2023/05/29 03:12:29;;;;;;;18.75;9.10;;;;;;;8.26;87.56;96070.78;2097374;28;20064;-57
2023/05/29 03:13:34;;;;;;;17.45;9.25;;;;;;;8.24;87.88;96062.28;2088960;28;20069;-58
2023/05/29 03:14:39;;;;;;;15.83;9.10;;;;;;;8.16;88.04;96055.63;2081274;28;20457;-57
2023/05/29 03:15:44;;;;;;;16.48;8.70;;;;;;;8.20;87.77;96069.28;2081392;28;20286;-58
2023/05/29 03:16:46;;;;;;;15.82;8.30;;;;;;;8.16;88.62;96065.13;2080856;28;20049;-57
2023/05/29 03:17:47;;;;;;;20.15;8.25;;;;;;;8.22;87.88;96066.66;2080724;28;20049;-57
2023/05/29 03:18:51;;;;;;;15.70;8.05;;;;;;;8.20;87.89;96069.28;2080477;28;20045;-57
2023/05/29 03:19:54;;;;;;;16.10;8.77;;;;;;;8.17;87.55;96071.97;2080343;28;20056;-58
2023/05/29 03:20:56;;;;;;;17.65;8.45;;;;;;;8.19;87.58;96070.19;2080325;28;20137;-58
2023/05/29 03:21:59;;;;;;;14.50;8.02;;;;;;;8.16;87.27;96065.97;2080820;28;20436;-57
2023/05/29 03:23:00;;;;;;;14.15;8.23;;;;;;;8.15;87.34;96069.47;2080626;28;20056;-58
2023/05/29 03:24:03;;;;;;;14.63;7.97;;;;;;;8.14;87.21;96070.34;2080307;28;20140;-57
2023/05/29 03:25:05;;;;;;;15.20;9.00;;;;;;;8.12;87.37;96079.91;2080173;28;20064;-57
2023/05/29 03:26:08;;;;;;;15.70;8.75;;;;;;;8.15;87.41;96072.06;2080528;28;20049;-57
2023/05/29 03:27:10;;;;;;;16.75;9.07;;;;;;;8.17;87.69;96071.97;2080574;28;20045;-57
2023/05/29 03:28:12;;;;;;;16.20;8.90;;;;;;;8.18;88.13;96073.69;2080105;28;20104;-57
2023/05/29 03:29:13;;;;;;;17.10;9.23;;;;;;;8.20;88.12;96073.63;2080595;28;20060;-58
2023/05/29 03:30:14;;;;;;;15.27;8.30;;;;;;;8.18;88.18;96073.69;2080030;28;20719;-57
2023/05/29 03:31:17;;;;;;;18.35;9.32;;;;;;;8.18;88.47;96076.28;2080360;28;20057;-57
2023/05/29 03:32:18;;;;;;;15.82;9.48;;;;;;;8.15;88.58;96069.47;2089184;28;20049;-58
2023/05/29 03:33:19;;;;;;;15.38;9.05;;;;;;;8.18;88.94;96077.13;2088981;28;20512;-57
2023/05/29 03:34:34;;;;;;;13.80;8.25;;;;;;;8.16;88.51;96071.16;2082037;28;20056;-57
2023/05/29 03:35:37;;;;;;;19.48;9.10;;;;;;;8.13;89.13;96073.84;2080440;28;20057;-57
2023/05/29 03:36:38;;;;;;;14.07;8.00;;;;;;;8.02;89.06;96055.28;2080081;28;20056;-58
2023/05/29 03:37:40;;;;;;;16.83;8.57;;;;;;;8.09;89.21;96077.44;2088136;28;20056;-57
2023/05/29 03:38:41;;;;;;;14.05;7.95;;;;;;;8.07;89.12;96079.25;2088938;28;20091;-57
2023/05/29 03:39:42;;;;;;;15.30;8.60;;;;;;;8.07;89.50;96073.22;2088844;28;20055;-57
2023/05/29 03:40:43;;;;;;;16.02;8.57;;;;;;;8.05;89.07;96082.78;2088166;28;20090;-57
2023/05/29 03:41:44;;;;;;;17.70;8.27;;;;;;;8.02;89.08;96083.75;2080327;28;20076;-58
2023/05/29 03:42:46;;;;;;;17.70;8.50;;;;;;;7.92;89.06;96066.88;2080101;28;20107;-58
2023/05/29 03:43:50;;;;;;;15.48;8.27;;;;;;;8.00;88.88;96085.53;2080290;28;20421;-57
2023/05/29 03:44:52;;;;;;;15.35;8.65;;;;;;;8.00;89.18;96090.69;2079918;28;20049;-57
2023/05/29 03:45:53;;;;;;;16.88;9.02;;;;;;;8.00;89.10;96092.44;2080521;28;20053;-57
2023/05/29 03:46:55;;;;;;;14.65;9.00;;;;;;;7.99;89.45;96086.41;2088115;28;20049;-58
2023/05/29 03:47:56;;;;;;;14.23;8.35;;;;;;;8.00;89.28;96092.44;2087857;28;20049;-58
2023/05/29 03:48:57;;;;;;;16.27;9.10;;;;;;;8.00;89.55;96090.69;2097252;28;20500;-57
2023/05/29 03:49:59;;;;;;;16.63;8.32;;;;;;;8.01;89.16;96092.38;2088217;28;20531;-57
2023/05/29 03:51:00;;;;;;;15.60;8.27;;;;;;;8.09;89.34;96089.53;2080165;28;20060;-57
2023/05/29 03:52:06;;;;;;;14.73;8.05;;;;;;;8.10;89.20;96086.91;2081025;28;20065;-57
2023/05/29 03:53:07;;;;;;;15.90;8.20;;;;;;;8.19;88.78;96090.88;2088260;28;20052;-57
2023/05/29 03:54:08;;;;;;;13.15;7.85;;;;;;;8.26;88.42;96088.91;2088470;28;20045;-57
2023/05/29 03:55:14;;;;;;;14.70;7.05;;;;;;;8.29;87.92;96091.41;2080125;28;20057;-57
2023/05/29 03:56:16;;;;;;;16.92;7.57;;;;;;;8.29;87.90;96094.00;2080849;28;20064;-57
2023/05/29 03:57:17;;;;;;;14.38;7.85;;;;;;;8.31;87.65;96089.59;2088813;28;20075;-57
2023/05/29 03:58:18;;;;;;;13.43;6.97;;;;;;;8.33;87.42;96087.78;2088110;28;20052;-57
2023/05/29 03:59:20;;;;;;;13.20;7.60;;;;;;;8.38;87.29;96085.88;2080007;28;20049;-57
2023/05/29 04:00:22;;;;;;;14.55;7.57;;;;;;;8.41;87.07;96084.94;2089072;28;20053;-58
2023/05/29 04:01:26;;;;;;;15.13;7.43;;;;;;;8.43;86.84;96081.41;2089633;28;20143;-57
2023/05/29 04:02:28;;;;;;;15.68;7.13;;;;;;;8.45;86.45;96087.38;2090023;28;20053;-57
2023/05/29 04:03:31;;;;;;;13.50;7.80;;;;;;;8.50;86.10;96085.47;2099029;28;20496;-57
2023/05/29 04:04:33;;;;;;;15.15;8.15;;;;;;;8.53;85.00;96082.75;2089956;28;20053;-57
2023/05/29 04:05:34;;;;;;;15.45;7.97;;;;;;;8.58;84.96;96091.19;2090239;28;20393;-57
2023/05/29 04:06:38;;;;;;;12.65;7.93;;;;;;;8.63;84.58;96088.41;2089623;28;20544;-57
2023/05/29 04:07:39;;;;;;;13.05;6.75;;;;;;;8.70;84.06;96092.47;2074359;28;20053;-57
2023/05/29 04:08:40;;;;;;;12.90;7.38;;;;;;;8.75;83.29;96087.13;2073986;28;20053;-58
2023/05/29 04:09:41;;;;;;;13.65;7.30;;;;;;;8.78;82.88;96077.47;2081771;28;20440;-57
2023/05/29 04:10:43;;;;;;;12.77;7.00;;;;;;;8.86;82.51;96092.72;2082478;28;20049;-57
2023/05/29 04:11:44;;;;;;;13.27;7.28;;;;;;;8.90;82.20;96086.53;2081202;28;20068;-57
2023/05/29 04:12:46;;;;;;;13.05;6.50;;;;;;;8.95;81.97;96089.75;2081534;28;20057;-57
2023/05/29 04:13:47;;;;;;;13.07;6.82;;;;;;;8.99;81.94;96086.16;2082322;28;20057;-57
2023/05/29 04:14:48;;;;;;;14.35;7.80;;;;;;;9.03;81.44;96087.72;2090177;28;20064;-57
2023/05/29 04:15:53;;;;;;;14.93;6.95;;;;;;;9.08;81.42;96086.69;2089461;28;20432;-57
2023/05/29 04:16:54;;;;;;;13.93;7.25;;;;;;;9.10;81.13;96082.31;2090721;28;20048;-57
2023/05/29 04:17:55;;;;;;;12.77;6.97;;;;;;;9.15;80.98;96088.16;2089306;28;20104;-57
2023/05/29 04:18:57;;;;;;;12.07;6.93;;;;;;;9.18;80.71;96091.44;2089691;28;20056;-57
2023/05/29 04:20:07;;;;;;;9.65;6.53;;;;;;;9.24;80.53;96101.56;2082387;28;20382;-57
2023/05/29 04:21:08;;;;;;;14.05;6.90;;;;;;;9.36;80.56;96100.22;2082304;28;20076;-57
2023/05/29 04:22:10;;;;;;;12.70;6.95;;;;;;;9.38;79.69;96094.97;2073960;28;20053;-57
2023/05/29 04:23:11;;;;;;;11.85;6.80;;;;;;;9.40;80.10;96101.78;2073912;28;20057;-57
2023/05/29 04:24:12;;;;;;;11.60;6.75;;;;;;;9.43;79.92;96101.66;2081320;28;20056;-57
2023/05/29 04:25:13;;;;;;;13.20;6.75;;;;;;;9.48;79.32;96104.06;2090096;28;20056;-57
2023/05/29 04:26:14;;;;;;;10.80;6.72;;;;;;;9.52;79.04;96097.03;2090327;28;20400;-57
2023/05/29 04:27:15;;;;;;;11.82;6.22;;;;;;;9.56;79.71;96103.75;2082023;28;20100;-57
2023/05/29 04:28:17;;;;;;;12.30;7.03;;;;;;;9.58;79.15;96105.38;2089844;28;20056;-58
2023/05/29 04:29:19;;;;;;;14.20;7.35;;;;;;;9.65;79.41;96111.13;2089793;28;20496;-59
2023/05/29 04:30:20;;;;;;;12.55;6.80;;;;;;;9.68;79.07;96108.44;2081909;28;20045;-59
2023/05/29 04:31:25;;;;;;;15.45;7.53;;;;;;;9.62;79.41;96087.94;2081556;28;20106;-59
2023/05/29 04:32:27;;;;;;;12.25;7.05;;;;;;;9.75;79.31;96102.06;2080775;28;20429;-59
2023/05/29 04:33:30;;;;;;;12.68;7.60;;;;;;;9.74;79.05;96095.19;2074141;28;20108;-59
2023/05/29 04:34:32;;;;;;;13.32;6.95;;;;;;;9.86;78.71;96110.25;2081388;28;20366;-59
2023/05/29 04:35:33;;;;;;;13.93;7.13;;;;;;;9.89;78.65;96110.13;2089482;28;20059;-59
2023/05/29 04:36:38;;;;;;;13.15;6.90;;;;;;;9.96;78.57;96112.44;2081828;28;20042;-60
2023/05/29 04:37:45;;;;;;;13.15;7.15;;;;;;;10.01;78.34;96111.34;2090382;28;20431;-59
2023/05/29 04:38:47;;;;;;;13.82;7.03;;;;;;;10.05;77.57;96106.84;2089643;28;20518;-59
2023/05/29 04:39:51;;;;;;;11.82;6.60;;;;;;;10.09;77.08;96111.84;2089513;28;20055;-59
2023/05/29 04:40:58;;;;;;;11.80;6.93;;;;;;;10.11;76.65;96109.19;2082652;28;20413;-59
2023/05/29 04:42:00;;;;;;;13.90;6.70;;;;;;;10.16;76.16;96104.66;2073761;28;20394;-59
2023/05/29 04:43:02;;;;;;;10.85;6.40;;;;;;;10.16;76.79;96104.66;2074159;28;20454;-59
2023/05/29 04:44:13;;;;;;;11.93;6.78;;;;;;;10.31;76.05;96116.97;2082786;28;20053;-56
2023/05/29 04:45:20;;;;;;;11.77;6.60;;;;;;;10.37;75.97;96119.31;2081679;28;20428;-56
2023/05/29 04:46:21;;;;;;;15.02;6.55;;;;;;;10.42;75.80;96119.09;2081270;28;20058;-56
2023/05/29 04:47:22;;;;;;;15.68;6.57;;;;;;;10.48;75.44;96118.00;2089542;28;20073;-55
2023/05/29 04:48:24;;;;;;;13.80;6.60;;;;;;;10.54;74.00;96122.91;2089571;28;20052;-56
2023/05/29 04:49:27;;;;;;;18.42;6.93;;;;;;;10.59;74.20;96119.19;2089345;28;20052;-56
2023/05/29 04:50:30;;;;;;;13.70;6.78;;;;;;;10.65;74.18;96123.25;2081297;28;20124;-56
2023/05/29 04:51:32;;;;;;;12.52;6.32;;;;;;;10.72;72.91;96127.25;2081604;28;20389;-55
2023/05/29 04:52:33;;;;;;;11.65;6.35;;;;;;;10.77;73.00;96117.50;2081743;28;20107;-56
2023/05/29 04:53:34;;;;;;;12.77;6.28;;;;;;;10.84;72.89;96118.06;2090139;28;20404;-56